Time;durP1;ratioP1;P1;durP2;ratioP2;P2;SDS_P1;SDS_P2;PMS_P1;PMS_P2;Temp;Humidity;BMP_temperature;BMP_pressure;BME280_temperature;BME280_humidity;BME280_pressure;Samples;Min_cycle;Max_cycle;Signal;HPM_P1;HPM_P2
2024/01/03 00:02:53;;;;;;;2.20;1.50;;;;;;;8.02;100.00;97928.34;182787;1232;45945;-83
2024/01/03 00:06:55;;;;;;;1.90;0.90;;;;;;;8.03;100.00;97924.54;183277;1231;45971;-85
2024/01/03 00:10:58;;;;;;;2.90;1.00;;;;;;;8.04;100.00;97925.97;182993;1232;46065;-83
2024/01/03 00:15:00;;;;;;;2.00;1.00;;;;;;;8.07;100.00;97920.74;182988;1236;57087;-84
2024/01/03 00:19:03;;;;;;;1.30;0.70;;;;;;;8.07;100.00;97912.39;183006;1233;46094;-84
2024/01/03 00:23:10;;;;;;;1.90;1.60;;;;;;;8.08;100.00;97909.34;182704;1231;46074;-84
2024/01/03 00:27:13;;;;;;;2.20;0.90;;;;;;;8.07;100.00;97907.49;182871;1235;46069;-83
2024/01/03 00:31:42;;;;;;;0.80;0.50;;;;;;;8.07;100.00;97909.75;182879;1231;46516;-84
2024/01/03 00:35:44;;;;;;;1.20;1.10;;;;;;;8.04;100.00;97906.80;182812;1235;59440;-85
2024/01/03 00:39:46;;;;;;;0.70;0.40;;;;;;;8.08;100.00;97910.41;183209;1231;45951;-84
2024/01/03 00:43:48;;;;;;;1.20;0.70;;;;;;;8.12;100.00;97902.72;182805;1231;46077;-83
2024/01/03 00:47:50;;;;;;;1.70;0.80;;;;;;;8.10;100.00;97899.39;183787;1231;45933;-83
2024/01/03 00:51:54;;;;;;;0.80;0.70;;;;;;;8.07;100.00;97890.88;183546;1231;46030;-83
2024/01/03 00:55:56;;;;;;;2.10;1.60;;;;;;;8.07;100.00;97890.54;182914;1231;58862;-82
2024/01/03 00:59:58;;;;;;;2.90;1.90;;;;;;;8.10;100.00;97887.51;183395;1231;46042;-82
2024/01/03 01:03:59;;;;;;;3.40;1.00;;;;;;;8.11;100.00;97889.02;183313;1234;46151;-83
2024/01/03 01:08:02;;;;;;;3.10;1.20;;;;;;;8.08;100.00;97888.47;183556;1234;46025;-83
2024/01/03 01:12:04;;;;;;;0.90;0.90;;;;;;;8.10;100.00;97886.38;183061;1236;45963;-83
2024/01/03 01:16:05;;;;;;;1.50;0.50;;;;;;;8.08;100.00;97880.71;183238;1232;58470;-84
2024/01/03 01:20:08;;;;;;;0.30;0.30;;;;;;;8.10;100.00;97879.66;183198;1234;45940;-83
2024/01/03 01:24:09;;;;;;;0.50;0.30;;;;;;;8.02;100.00;97867.58;183454;1231;46061;-83
2024/01/03 01:28:11;;;;;;;1.40;0.60;;;;;;;8.04;100.00;97859.41;182972;1231;46084;-83
2024/01/03 01:32:13;;;;;;;0.90;0.90;;;;;;;8.00;100.00;97841.72;182914;1235;46052;-83
2024/01/03 01:36:16;;;;;;;0.90;0.90;;;;;;;8.05;100.00;97839.39;183348;1231;58344;-83
2024/01/03 01:40:18;;;;;;;0.40;0.40;;;;;;;8.07;100.00;97842.20;183234;1231;46048;-83
2024/01/03 01:44:20;;;;;;;0.50;0.30;;;;;;;8.11;100.00;97843.64;183498;1231;46062;-83
2024/01/03 01:48:22;;;;;;;0.20;0.20;;;;;;;8.18;100.00;97842.59;183215;1231;45816;-83
2024/01/03 01:52:25;;;;;;;2.30;0.50;;;;;;;8.23;100.00;97840.42;183704;1231;46046;-83
2024/01/03 01:56:27;;;;;;;0.80;0.30;;;;;;;8.29;100.00;97841.01;183264;1231;59510;-82
2024/01/03 02:00:29;;;;;;;1.40;0.90;;;;;;;8.29;100.00;97837.49;182832;1232;46411;-83
2024/01/03 02:04:35;;;;;;;0.20;0.20;;;;;;;8.28;100.00;97833.84;183105;1235;46027;-81
2024/01/03 02:08:37;;;;;;;0.20;0.20;;;;;;;8.32;100.00;97835.75;183011;1232;45935;-82
2024/01/03 02:12:39;;;;;;;0.20;0.20;;;;;;;8.43;100.00;97827.66;182968;1231;45938;-83
2024/01/03 02:16:41;;;;;;;0.60;0.40;;;;;;;8.52;100.00;97825.89;183169;1231;58796;-83
2024/01/03 02:20:44;;;;;;;0.90;0.30;;;;;;;8.61;100.00;97818.02;182873;1231;46104;-80
2024/01/03 02:24:46;;;;;;;0.20;0.10;;;;;;;8.69;100.00;97818.23;183503;1231;46031;-83
2024/01/03 02:28:47;;;;;;;2.30;0.90;;;;;;;8.77;100.00;97822.45;183342;1231;45940;-83
2024/01/03 02:32:49;;;;;;;0.30;0.30;;;;;;;8.86;100.00;97828.46;183235;1231;46054;-83
2024/01/03 02:36:53;;;;;;;1.30;0.20;;;;;;;8.91;100.00;97825.45;183220;1235;59414;-83
2024/01/03 02:40:54;;;;;;;1.90;0.20;;;;;;;8.96;100.00;97822.89;182963;1232;46061;-82
2024/01/03 02:44:56;;;;;;;1.00;0.20;;;;;;;9.02;100.00;97820.86;183532;1232;46075;-84
2024/01/03 02:48:58;;;;;;;0.00;0.00;;;;;;;9.04;100.00;97820.29;182746;1231;45983;-82
2024/01/03 02:53:01;;;;;;;0.40;0.20;;;;;;;9.06;100.00;97822.79;182998;1231;45931;-82
2024/01/03 02:57:03;;;;;;;0.10;0.10;;;;;;;9.06;100.00;97824.14;183081;1233;59928;-83
2024/01/03 03:01:05;;;;;;;1.50;0.20;;;;;;;9.05;100.00;97818.47;183043;1234;46173;-83
2024/01/03 03:05:07;;;;;;;0.10;0.00;;;;;;;9.06;100.00;97817.77;183000;1235;46440;-83
2024/01/03 03:09:09;;;;;;;0.20;0.10;;;;;;;9.07;100.00;97814.88;182991;1234;46225;-83
2024/01/03 03:13:18;;;;;;;0.30;0.20;;;;;;;9.06;100.00;97817.43;183089;1230;46034;-84
2024/01/03 03:17:20;;;;;;;0.60;0.20;;;;;;;9.10;100.00;97814.36;182608;1231;57795;-83
2024/01/03 03:21:22;;;;;;;0.60;0.60;;;;;;;9.12;100.00;97807.00;182865;1234;46088;-84
2024/01/03 03:25:23;;;;;;;0.20;0.20;;;;;;;9.13;100.00;97813.03;183222;1234;46161;-84
2024/01/03 03:29:25;;;;;;;1.10;0.20;;;;;;;9.11;100.00;97813.64;182942;1231;46068;-83
2024/01/03 03:33:27;;;;;;;0.20;0.10;;;;;;;9.08;100.00;97809.59;182923;1231;45982;-84
2024/01/03 03:37:29;;;;;;;0.50;0.30;;;;;;;9.15;100.00;97809.66;182919;1235;57836;-83
2024/01/03 03:41:31;;;;;;;0.20;0.20;;;;;;;9.26;100.00;97804.47;183019;1231;46067;-84
2024/01/03 03:45:33;;;;;;;0.20;0.10;;;;;;;9.39;100.00;97804.83;183273;1232;46007;-83
2024/01/03 03:49:34;;;;;;;0.20;0.20;;;;;;;9.46;100.00;97805.41;182964;1231;45935;-84
2024/01/03 03:53:36;;;;;;;0.30;0.30;;;;;;;9.54;100.00;97804.42;182961;1231;46090;-84
2024/01/03 03:57:38;;;;;;;0.20;0.10;;;;;;;9.68;100.00;97805.86;182882;1235;59855;-84
2024/01/03 04:01:40;;;;;;;0.70;0.10;;;;;;;9.85;100.00;97806.48;183076;1231;46053;-85
2024/01/03 04:05:41;;;;;;;0.30;0.10;;;;;;;9.97;100.00;97808.98;183522;1231;46021;-85
2024/01/03 04:09:44;;;;;;;0.50;0.20;;;;;;;10.13;100.00;97819.98;182853;1231;46036;-85
2024/01/03 04:13:45;;;;;;;0.40;0.10;;;;;;;10.27;100.00;97821.92;183431;1231;45925;-84
2024/01/03 04:17:47;;;;;;;1.30;0.20;;;;;;;10.38;100.00;97817.83;183636;1233;59208;-84
2024/01/03 04:21:49;;;;;;;0.50;0.10;;;;;;;10.49;100.00;97820.35;182952;1231;45938;-83
2024/01/03 04:25:51;;;;;;;1.20;0.20;;;;;;;10.56;100.00;97821.73;183439;1231;46071;-84
2024/01/03 04:29:52;;;;;;;2.30;0.30;;;;;;;10.63;100.00;97825.59;183313;1235;46043;-84
2024/01/03 04:33:54;;;;;;;0.50;0.20;;;;;;;10.68;100.00;97823.93;183169;1235;46004;-82
2024/01/03 04:38:02;;;;;;;0.00;0.00;;;;;;;10.72;100.00;97825.08;182905;1235;57996;-83
2024/01/03 04:42:04;;;;;;;1.00;0.50;;;;;;;10.73;100.00;97827.84;183367;1234;46385;-83
2024/01/03 04:46:06;;;;;;;0.40;0.10;;;;;;;10.74;100.00;97829.77;182739;1232;46141;-83
2024/01/03 04:50:08;;;;;;;0.50;0.10;;;;;;;10.83;100.00;97832.43;182680;1231;46028;-83
2024/01/03 04:54:10;;;;;;;0.20;0.10;;;;;;;10.90;100.00;97835.54;182859;1235;46579;-84
2024/01/03 04:58:12;;;;;;;0.30;0.10;;;;;;;10.90;100.00;97843.84;182780;1235;59693;-86
2024/01/03 05:02:14;;;;;;;0.30;0.10;;;;;;;10.89;100.00;97851.90;182908;1231;46046;-81
2024/01/03 05:06:16;;;;;;;0.10;0.10;;;;;;;10.88;100.00;97851.35;183138;1231;46021;-82
2024/01/03 05:10:18;;;;;;;0.40;0.20;;;;;;;10.85;100.00;97858.77;182955;1232;45943;-83
2024/01/03 05:14:20;;;;;;;0.10;0.10;;;;;;;10.85;100.00;97860.56;182654;1231;45982;-83
2024/01/03 05:18:22;;;;;;;0.10;0.10;;;;;;;10.84;100.00;97859.09;182798;1234;59806;-81
2024/01/03 05:22:24;;;;;;;1.20;0.40;;;;;;;10.93;100.00;97860.15;181867;1231;46382;-84
2024/01/03 05:26:25;;;;;;;1.60;0.60;;;;;;;10.94;100.00;97871.88;182866;1237;45953;-84
2024/01/03 05:30:27;;;;;;;0.40;0.30;;;;;;;10.96;100.00;97871.85;182591;1232;45937;-83
2024/01/03 05:34:29;;;;;;;0.90;0.60;;;;;;;10.91;100.00;97873.19;182873;1231;46049;-83
2024/01/03 05:38:35;;;;;;;0.50;0.40;;;;;;;10.85;100.00;97883.97;182661;1231;59532;-82
2024/01/03 05:42:37;;;;;;;0.30;0.20;;;;;;;10.77;100.00;97878.59;182675;1231;45951;-83
2024/01/03 05:46:39;;;;;;;1.70;0.30;;;;;;;10.75;100.00;97881.14;182923;1231;46053;-82
2024/01/03 05:50:40;;;;;;;0.30;0.20;;;;;;;10.75;100.00;97881.97;183052;1232;46053;-82
2024/01/03 05:54:42;;;;;;;0.50;0.50;;;;;;;10.76;100.00;97887.41;183575;1232;45937;-83
2024/01/03 05:58:44;;;;;;;1.40;0.80;;;;;;;10.76;100.00;97887.95;183511;1231;57996;-83
2024/01/03 06:02:45;;;;;;;0.30;0.30;;;;;;;10.81;100.00;97895.13;183477;1231;45998;-83
2024/01/03 06:06:47;;;;;;;0.80;0.20;;;;;;;10.86;100.00;97897.64;183088;1235;45967;-83
2024/01/03 06:10:49;;;;;;;0.10;0.10;;;;;;;10.90;100.00;97897.87;183170;1235;46116;-83
2024/01/03 06:14:51;;;;;;;0.20;0.20;;;;;;;10.96;100.00;97903.09;182969;1231;46002;-83
2024/01/03 06:18:53;;;;;;;0.30;0.30;;;;;;;10.98;100.00;97904.41;182999;1231;59473;-83
2024/01/03 06:22:55;;;;;;;0.20;0.20;;;;;;;10.97;100.00;97912.30;183028;1231;46356;-82
2024/01/03 06:26:56;;;;;;;1.20;0.20;;;;;;;10.99;100.00;97913.70;182735;1231;45957;-83
2024/01/03 06:30:59;;;;;;;1.00;0.30;;;;;;;10.92;100.00;97917.56;183037;1235;46027;-83
2024/01/03 06:35:01;;;;;;;0.50;0.30;;;;;;;10.92;100.00;97919.89;182771;1231;46074;-82
2024/01/03 06:39:02;;;;;;;0.80;0.40;;;;;;;10.88;100.00;97927.98;183108;1231;57808;-83
2024/01/03 06:43:06;;;;;;;0.70;0.70;;;;;;;10.82;100.00;97928.94;183034;1235;46061;-83
2024/01/03 06:47:08;;;;;;;0.30;0.20;;;;;;;10.81;99.74;97933.55;183081;1232;46148;-82
2024/01/03 06:51:09;;;;;;;0.90;0.10;;;;;;;10.77;99.58;97938.41;182551;1231;45839;-82
2024/01/03 06:55:11;;;;;;;0.30;0.30;;;;;;;10.67;99.70;97950.83;183223;1231;46629;-83
2024/01/03 06:59:13;;;;;;;0.50;0.20;;;;;;;10.57;99.63;97952.87;182984;1231;58156;-82
2024/01/03 07:03:15;;;;;;;0.40;0.30;;;;;;;10.49;99.81;97959.54;183247;1230;46049;-82
2024/01/03 07:07:17;;;;;;;0.40;0.20;;;;;;;10.41;99.91;97963.39;182805;1231;46073;-82
2024/01/03 07:11:20;;;;;;;0.50;0.30;;;;;;;10.37;99.31;97968.87;182988;1236;46079;-82
2024/01/03 07:15:22;;;;;;;1.50;0.20;;;;;;;10.38;98.90;97974.33;182819;1236;46069;-83
2024/01/03 07:19:24;;;;;;;2.20;0.40;;;;;;;10.40;98.84;97976.95;183043;1234;60046;-82
2024/01/03 07:23:25;;;;;;;1.50;0.70;;;;;;;10.38;98.11;97974.77;183084;1235;46717;-82
2024/01/03 07:27:27;;;;;;;3.30;0.40;;;;;;;10.39;98.07;97982.96;182778;1231;45136;-82
2024/01/03 07:31:30;;;;;;;1.80;0.20;;;;;;;10.42;97.66;97984.39;182712;1231;46037;-82
2024/01/03 07:35:31;;;;;;;1.60;0.70;;;;;;;10.43;97.97;97986.95;182690;1235;45995;-83
2024/01/03 07:39:33;;;;;;;1.60;0.50;;;;;;;10.44;98.31;97990.21;182757;1231;58386;-82
2024/01/03 07:43:35;;;;;;;0.50;0.30;;;;;;;10.47;98.07;97989.56;182621;1232;46085;-82
2024/01/03 07:47:37;;;;;;;0.90;0.50;;;;;;;10.51;98.19;97989.59;182972;1231;45995;-82
2024/01/03 07:51:39;;;;;;;0.50;0.20;;;;;;;10.51;97.65;97983.36;182845;1236;46070;-83
2024/01/03 07:55:41;;;;;;;0.90;0.50;;;;;;;10.56;97.01;97981.19;182663;1231;46056;-83
2024/01/03 07:59:45;;;;;;;0.40;0.30;;;;;;;10.64;97.22;97982.22;183096;1235;58219;-82
2024/01/03 08:03:47;;;;;;;0.40;0.30;;;;;;;10.69;96.40;97984.48;182852;1235;45944;-83
2024/01/03 08:07:49;;;;;;;1.00;0.50;;;;;;;10.77;96.25;97989.86;183084;1231;46113;-82
2024/01/03 08:11:51;;;;;;;2.10;0.50;;;;;;;10.79;96.54;97993.58;183688;1231;46005;-82
2024/01/03 08:15:52;;;;;;;0.90;0.30;;;;;;;10.72;96.68;98000.36;183074;1231;46087;-82
2024/01/03 08:19:54;;;;;;;1.40;0.30;;;;;;;10.65;96.62;98001.44;182946;1236;57910;-82
2024/01/03 08:23:56;;;;;;;0.20;0.20;;;;;;;10.68;97.37;98002.96;182936;1231;46057;-82
2024/01/03 08:27:58;;;;;;;2.80;0.50;;;;;;;10.73;96.34;97997.56;182744;1236;45957;-82
2024/01/03 08:32:00;;;;;;;0.90;0.20;;;;;;;10.88;96.69;98003.41;183163;1235;46141;-82
2024/01/03 08:36:02;;;;;;;0.90;0.20;;;;;;;11.00;95.83;98009.65;183429;1231;44811;-82
2024/01/03 08:40:05;;;;;;;1.20;0.50;;;;;;;11.08;95.62;98007.66;182859;1231;59340;-82
2024/01/03 08:44:07;;;;;;;1.60;0.90;;;;;;;11.22;95.58;98013.86;183094;1234;45843;-82
2024/01/03 08:48:09;;;;;;;1.00;0.50;;;;;;;11.29;95.31;98017.91;182788;1237;46155;-82
2024/01/03 08:52:12;;;;;;;1.40;0.40;;;;;;;11.34;95.01;98026.54;182914;1236;46037;-81
2024/01/03 08:56:15;;;;;;;1.10;0.50;;;;;;;11.41;94.76;98028.54;183191;1235;44349;-82
2024/01/03 09:00:18;;;;;;;0.60;0.30;;;;;;;11.45;93.03;98024.13;183767;1232;59338;-82
2024/01/03 09:04:19;;;;;;;0.50;0.50;;;;;;;11.55;93.06;98025.58;183115;1231;46043;-82
2024/01/03 09:08:21;;;;;;;1.20;0.50;;;;;;;11.62;91.80;98015.96;183025;1231;45955;-82
2024/01/03 09:12:24;;;;;;;2.50;0.80;;;;;;;11.69;91.54;98022.45;183158;1231;46178;-82
2024/01/03 09:16:32;;;;;;;0.90;0.40;;;;;;;11.76;91.69;98026.78;182730;1236;46001;-82
2024/01/03 09:20:34;;;;;;;1.40;0.60;;;;;;;11.82;91.09;98031.60;183120;1231;59236;-82
2024/01/03 09:24:36;;;;;;;2.90;0.70;;;;;;;11.87;90.47;98043.91;182867;1235;44132;-82
2024/01/03 09:28:38;;;;;;;0.50;0.40;;;;;;;11.94;90.86;98046.63;183036;1235;46048;-82
2024/01/03 09:32:41;;;;;;;1.80;0.40;;;;;;;12.00;90.64;98039.66;182708;1231;45002;-82
2024/01/03 09:36:44;;;;;;;1.80;0.20;;;;;;;12.04;89.61;98043.66;183167;1231;46091;-82
2024/01/03 09:40:46;;;;;;;1.10;0.50;;;;;;;12.01;89.30;98052.21;183167;1231;57867;-82
2024/01/03 09:44:48;;;;;;;1.00;0.70;;;;;;;12.04;90.00;98059.89;182788;1231;45986;-82
2024/01/03 09:48:50;;;;;;;1.80;0.40;;;;;;;12.09;88.57;98061.63;182918;1236;46017;-82
2024/01/03 09:52:56;;;;;;;0.90;0.30;;;;;;;12.17;88.20;98067.50;183086;1231;46072;-82
2024/01/03 09:56:58;;;;;;;3.30;0.40;;;;;;;12.20;86.91;98062.83;182997;1231;45924;-82
2024/01/03 10:00:59;;;;;;;1.90;0.30;;;;;;;12.19;86.43;98061.38;182924;1235;58057;-82
2024/01/03 10:05:03;;;;;;;2.10;0.30;;;;;;;12.16;87.96;98062.13;182622;1231;46069;-82
2024/01/03 10:09:07;;;;;;;0.80;0.40;;;;;;;12.13;86.73;98061.04;182678;1235;187695;-82
2024/01/03 10:13:14;;;;;;;1.50;0.60;;;;;;;12.15;86.20;98058.30;183274;1235;45987;-82
2024/01/03 10:17:16;;;;;;;1.50;0.40;;;;;;;12.20;86.68;98059.13;182813;1231;44127;-82
2024/01/03 10:21:19;;;;;;;1.70;0.60;;;;;;;12.27;85.97;98062.89;182918;1232;60398;-82
2024/01/03 10:25:21;;;;;;;1.40;0.80;;;;;;;12.39;85.38;98064.63;182686;1237;46048;-82
2024/01/03 10:29:23;;;;;;;1.50;0.40;;;;;;;12.44;85.22;98069.42;183075;1231;45990;-82
2024/01/03 10:33:25;;;;;;;3.20;0.60;;;;;;;12.29;83.72;98068.27;183045;1235;45949;-82
2024/01/03 10:37:28;;;;;;;0.50;0.30;;;;;;;12.32;85.33;98067.77;183399;1231;45937;-82
2024/01/03 10:41:33;;;;;;;1.70;1.10;;;;;;;12.35;83.86;98063.65;183405;1231;59972;-82
2024/01/03 10:45:35;;;;;;;8.30;0.80;;;;;;;12.50;84.28;98067.83;183164;1231;46056;-82
2024/01/03 10:49:37;;;;;;;2.40;0.50;;;;;;;12.64;84.08;98062.91;183132;1235;45935;-82
2024/01/03 10:53:44;;;;;;;1.00;0.40;;;;;;;12.69;83.83;98056.01;183362;1231;45963;-82
2024/01/03 10:58:13;;;;;;;4.60;0.40;;;;;;;12.72;83.34;98056.43;182936;1231;44055;-82
2024/01/03 11:02:30;;;;;;;1.80;0.40;;;;;;;12.66;82.66;98048.83;183104;1232;58075;-82
2024/01/03 11:06:35;;;;;;;2.80;1.30;;;;;;;12.62;83.05;98050.73;183107;1236;46844;-82
2024/01/03 11:10:54;;;;;;;3.60;0.60;;;;;;;12.65;83.86;98045.38;182983;1231;46123;-82
2024/01/03 11:15:23;;;;;;;2.30;0.60;;;;;;;12.68;84.19;98039.21;182834;1235;45966;-82
2024/01/03 11:19:42;;;;;;;1.90;0.40;;;;;;;12.71;82.19;98030.23;183108;1231;46053;-82
2024/01/03 11:23:44;;;;;;;3.00;0.80;;;;;;;12.75;80.90;98029.36;182986;1231;59289;-81
2024/01/03 11:27:46;;;;;;;3.80;0.90;;;;;;;12.83;82.75;98035.41;182772;1231;46501;-81
2024/01/03 11:31:55;;;;;;;1.40;0.40;;;;;;;12.82;81.07;98022.89;182863;1232;46075;-82
2024/01/03 11:35:58;;;;;;;1.20;0.40;;;;;;;12.81;80.32;98029.86;183159;1234;45961;-82
2024/01/03 11:40:00;;;;;;;3.20;0.90;;;;;;;12.75;80.45;98022.76;182855;1232;45972;-82
2024/01/03 11:44:01;;;;;;;0.60;0.30;;;;;;;12.76;82.22;98025.30;183077;1231;57986;-82
2024/01/03 11:48:04;;;;;;;3.00;0.80;;;;;;;12.82;81.48;98024.23;183250;1231;46087;-82
2024/01/03 11:52:06;;;;;;;0.90;0.40;;;;;;;12.85;80.91;98022.20;183033;1231;46101;-82
2024/01/03 11:56:09;;;;;;;0.90;0.40;;;;;;;12.87;79.89;98023.61;182801;1235;46091;-83
2024/01/03 12:00:16;;;;;;;1.40;0.30;;;;;;;12.88;80.28;98033.06;183039;1231;46088;-82
2024/01/03 12:04:17;;;;;;;1.30;0.30;;;;;;;12.79;81.09;98036.29;183448;1235;59730;-83
2024/01/03 12:08:20;;;;;;;2.30;0.50;;;;;;;12.73;81.41;98034.98;183554;1231;45836;-82
2024/01/03 12:12:23;;;;;;;3.80;0.80;;;;;;;12.65;80.83;98036.48;183261;1231;46057;-82
2024/01/03 12:16:25;;;;;;;2.10;0.60;;;;;;;12.57;82.66;98039.59;183185;1236;46109;-82
2024/01/03 12:20:26;;;;;;;1.90;0.70;;;;;;;12.52;82.66;98044.91;183351;1235;46180;-82
2024/01/03 12:24:42;;;;;;;1.10;0.60;;;;;;;12.56;84.09;98038.14;183689;1231;57837;-82
2024/01/03 12:28:44;;;;;;;3.40;1.30;;;;;;;12.48;85.03;98036.29;182894;1231;46015;-81
2024/01/03 12:32:47;;;;;;;3.70;0.90;;;;;;;12.40;85.68;98043.27;183391;1231;45996;-81
2024/01/03 12:36:49;;;;;;;4.50;1.70;;;;;;;12.33;86.56;98038.09;183646;1235;46081;-82
2024/01/03 12:40:51;;;;;;;2.00;0.70;;;;;;;12.25;86.67;98033.99;183099;1236;46042;-82
2024/01/03 12:44:53;;;;;;;1.80;0.90;;;;;;;12.16;87.82;98039.67;183394;1235;60137;-82
2024/01/03 12:59:23;;;;;;;2.00;1.50;;;;;;;12.02;87.18;98030.48;186650;1231;90009;-59
2024/01/03 13:08:11;;;;;;;3.00;1.60;;;;;;;12.08;87.04;98029.87;186078;1232;58048;-59
2024/01/03 13:12:41;;;;;;;0.90;0.80;;;;;;;12.08;87.36;98031.23;185494;1233;45944;-59
2024/01/03 13:16:42;;;;;;;3.30;0.70;;;;;;;12.02;86.30;98031.98;185410;1233;44983;-59
2024/01/03 13:20:45;;;;;;;1.00;0.60;;;;;;;11.97;86.11;98031.66;185372;1233;43489;-59
2024/01/03 13:24:48;;;;;;;3.80;1.20;;;;;;;11.93;86.53;98039.30;185452;1236;45883;-59
2024/01/03 13:28:52;;;;;;;1.70;0.90;;;;;;;11.85;87.14;98039.71;185389;1234;58431;-59
2024/01/03 13:32:54;;;;;;;2.30;0.90;;;;;;;11.81;88.11;98042.75;185541;1233;43654;-59
2024/01/03 13:36:58;;;;;;;3.30;1.20;;;;;;;11.78;88.14;98046.61;185536;1234;45973;-59
2024/01/03 13:41:00;;;;;;;3.80;1.50;;;;;;;11.75;89.59;98048.16;185490;1234;44564;-59
2024/01/03 13:45:03;;;;;;;1.90;1.10;;;;;;;11.67;91.20;98049.89;185491;1234;43540;-59
2024/01/03 13:49:38;;;;;;;1.60;1.10;;;;;;;11.59;91.90;98056.39;185133;1234;57827;-57
2024/01/03 13:58:17;;;;;;;2.20;1.30;;;;;;;11.51;93.44;98048.60;183931;1230;45860;-86
2024/01/03 14:02:20;;;;;;;2.00;1.10;;;;;;;11.49;93.49;98042.17;183413;1230;46373;-87
2024/01/03 14:06:22;;;;;;;2.20;1.20;;;;;;;11.48;93.03;98040.54;183355;1234;46078;-88
2024/01/03 14:10:25;;;;;;;4.40;1.90;;;;;;;11.47;93.06;98039.21;184791;1231;59468;-87
2024/01/03 14:14:29;;;;;;;2.70;1.40;;;;;;;11.44;93.11;98034.63;183674;1232;46029;-88
2024/01/03 14:18:31;;;;;;;2.50;1.20;;;;;;;11.43;92.23;98032.41;183410;1231;45946;-87
2024/01/03 14:22:34;;;;;;;3.30;1.40;;;;;;;11.43;91.75;98031.67;182911;1231;46628;-87
2024/01/03 14:26:37;;;;;;;3.40;1.40;;;;;;;11.37;91.60;98028.85;183060;1231;46084;-85
2024/01/03 14:30:42;;;;;;;1.10;0.90;;;;;;;11.37;91.07;98021.08;183463;1232;59352;-87
2024/01/03 14:34:44;;;;;;;1.90;0.90;;;;;;;11.37;91.08;98019.97;183443;1231;45901;-87
2024/01/03 14:38:47;;;;;;;4.80;1.90;;;;;;;11.34;91.72;98021.95;182950;1231;46111;-87
2024/01/03 14:42:50;;;;;;;1.60;0.90;;;;;;;11.28;91.24;98016.95;182774;1231;45995;-88
2024/01/03 14:46:54;;;;;;;1.20;0.70;;;;;;;11.22;90.86;98010.23;182900;1231;45900;-89
2024/01/03 14:50:58;;;;;;;3.20;1.00;;;;;;;11.24;90.62;98005.23;183550;1234;57981;-88
2024/01/03 14:55:01;;;;;;;1.50;0.60;;;;;;;11.22;89.79;98002.27;183476;1231;46145;-87
2024/01/03 14:59:04;;;;;;;2.40;0.80;;;;;;;11.18;89.97;97997.30;183204;1231;46087;-89
2024/01/03 15:03:07;;;;;;;2.20;1.30;;;;;;;11.12;90.52;98006.29;182947;1231;45957;-87
2024/01/03 15:07:12;;;;;;;2.40;1.30;;;;;;;11.08;93.23;98019.17;182488;1232;45955;-88
2024/01/03 15:11:18;;;;;;;2.60;1.60;;;;;;;11.00;95.95;98022.05;183821;1231;59120;-87
2024/01/03 15:15:20;;;;;;;2.70;1.60;;;;;;;10.92;97.59;98012.17;183705;1231;46074;-89
2024/01/03 15:19:23;;;;;;;4.40;1.50;;;;;;;10.90;98.29;98012.51;183696;1231;44306;-88
2024/01/03 15:23:25;;;;;;;3.40;1.30;;;;;;;10.81;98.12;98013.70;183287;1231;45991;-87
2024/01/03 15:27:28;;;;;;;2.40;1.40;;;;;;;10.75;97.87;98014.55;183036;1231;46124;-88
2024/01/03 15:31:30;;;;;;;2.70;1.10;;;;;;;10.73;97.68;98020.29;182991;1236;59498;-88
2024/01/03 15:35:32;;;;;;;1.70;1.20;;;;;;;10.69;97.63;98009.98;183528;1231;46055;-88
2024/01/03 15:39:38;;;;;;;2.30;1.10;;;;;;;10.68;98.01;98023.54;182744;1233;46149;-87
2024/01/03 15:43:41;;;;;;;4.10;2.10;;;;;;;10.69;97.82;98020.80;182933;1231;46053;-89
2024/01/03 15:47:43;;;;;;;3.50;2.30;;;;;;;10.71;98.23;98016.16;182865;1231;45965;-87
2024/01/03 15:51:59;;;;;;;9.80;4.00;;;;;;;10.77;98.84;98016.82;184391;1235;59823;-83
2024/01/03 15:56:01;;;;;;;5.70;3.00;;;;;;;10.77;99.06;98016.70;184286;1236;46081;-82
2024/01/03 16:00:05;;;;;;;3.60;1.90;;;;;;;10.77;97.98;98011.88;183524;1237;46123;-82
2024/01/03 16:04:08;;;;;;;2.50;1.50;;;;;;;10.79;97.17;98005.00;184506;1236;45988;-82
2024/01/03 16:08:09;;;;;;;4.00;2.50;;;;;;;10.81;97.02;98004.26;183939;1232;45381;-82
2024/01/03 16:12:11;;;;;;;1.90;0.80;;;;;;;10.80;96.39;98002.06;183737;1237;58111;-82
2024/01/03 16:16:14;;;;;;;3.50;2.10;;;;;;;10.80;95.69;97999.86;184367;1232;46112;-82
2024/01/03 16:20:18;;;;;;;5.50;2.70;;;;;;;10.79;95.24;98002.81;184404;1232;45963;-82
2024/01/03 16:24:20;;;;;;;1.80;1.40;;;;;;;10.83;94.74;98005.09;183865;1232;46083;-82
2024/01/03 16:28:22;;;;;;;2.30;1.40;;;;;;;10.86;94.74;98004.73;184021;1232;46028;-82
2024/01/03 16:32:25;;;;;;;3.60;1.60;;;;;;;10.87;94.41;98000.55;183031;1232;57981;-82
2024/01/03 16:36:27;;;;;;;4.70;1.20;;;;;;;10.85;93.91;97996.77;184481;1232;44108;-80
2024/01/03 16:40:29;;;;;;;1.70;1.00;;;;;;;10.86;94.44;97999.15;183165;1236;45837;-81
2024/01/03 16:44:31;;;;;;;2.80;0.70;;;;;;;10.79;94.30;97994.56;182665;1234;46075;-80
2024/01/03 16:48:33;;;;;;;1.20;0.70;;;;;;;10.82;93.78;97995.88;183424;1231;45992;-81
2024/01/03 16:52:42;;;;;;;0.90;0.60;;;;;;;10.83;94.15;97998.95;182880;1235;58087;-87
2024/01/03 16:56:45;;;;;;;2.00;0.70;;;;;;;10.85;94.57;98000.30;184302;1231;45916;-82
2024/01/03 17:00:51;;;;;;;1.00;0.40;;;;;;;10.88;95.09;98003.15;183808;1232;45949;-82
2024/01/03 17:04:53;;;;;;;0.80;0.50;;;;;;;10.87;94.73;98006.80;185263;1232;45936;-82
2024/01/03 17:08:56;;;;;;;1.70;0.70;;;;;;;10.82;94.06;98015.34;183534;1235;46106;-83
2024/01/03 17:13:00;;;;;;;2.60;1.00;;;;;;;10.80;93.67;98003.36;183755;1231;59371;-82
2024/01/03 17:17:02;;;;;;;0.90;0.40;;;;;;;10.79;92.38;98002.24;186101;1236;43696;-82
2024/01/03 17:21:04;;;;;;;1.70;0.90;;;;;;;10.89;92.17;97999.20;184885;1232;45140;-82
2024/01/03 17:25:06;;;;;;;1.60;1.30;;;;;;;10.97;91.64;98006.05;184481;1235;46075;-82
2024/01/03 17:29:08;;;;;;;1.70;1.00;;;;;;;10.97;92.18;98000.56;185067;1232;44456;-83
2024/01/03 17:33:12;;;;;;;2.10;0.80;;;;;;;10.90;92.64;97999.17;186134;1232;58132;-83
2024/01/03 17:37:15;;;;;;;3.90;1.40;;;;;;;10.86;93.37;98000.84;185408;1232;45947;-83
2024/01/03 17:41:22;;;;;;;1.40;0.90;;;;;;;10.79;93.98;98004.23;183883;1232;45988;-82
2024/01/03 17:45:23;;;;;;;1.40;0.70;;;;;;;10.69;94.35;98003.18;183801;1232;46091;-82
2024/01/03 17:49:25;;;;;;;3.50;1.10;;;;;;;10.62;94.84;98003.90;183580;1231;46178;-81
2024/01/03 17:53:27;;;;;;;0.90;0.70;;;;;;;10.54;95.27;98007.13;183910;1236;59495;-81
2024/01/03 17:57:33;;;;;;;4.80;1.80;;;;;;;10.44;95.64;98007.72;183440;1231;46083;-81
2024/01/03 18:01:34;;;;;;;4.30;2.10;;;;;;;10.35;95.66;97998.84;183713;1232;46078;-80
2024/01/03 18:05:39;;;;;;;8.80;2.80;;;;;;;10.25;95.86;98002.04;184215;1233;45925;-81
2024/01/03 18:09:41;;;;;;;3.60;1.80;;;;;;;10.21;96.28;98007.87;185686;1232;44313;-81
2024/01/03 18:13:42;;;;;;;3.20;2.00;;;;;;;10.18;96.42;98012.80;183972;1232;59680;-81
2024/01/03 18:17:45;;;;;;;4.20;1.70;;;;;;;10.13;96.81;98009.48;183724;1232;45644;-82
2024/01/03 18:21:47;;;;;;;5.00;1.10;;;;;;;10.11;97.24;98012.77;183992;1232;46092;-82
2024/01/03 18:25:49;;;;;;;7.50;1.90;;;;;;;10.08;97.12;98013.59;183870;1232;45975;-82
2024/01/03 18:29:51;;;;;;;5.80;3.00;;;;;;;10.09;96.38;98017.92;184201;1232;46122;-82
2024/01/03 18:33:52;;;;;;;1.70;1.30;;;;;;;10.05;95.70;98023.67;183256;1231;57929;-82
2024/01/03 18:37:56;;;;;;;3.20;1.20;;;;;;;10.09;95.67;98022.21;184509;1232;46007;-82
2024/01/03 18:41:58;;;;;;;2.40;1.20;;;;;;;10.22;94.90;98022.34;183549;1232;46062;-82
2024/01/03 18:46:00;;;;;;;3.80;1.20;;;;;;;10.36;93.70;98020.69;183230;1232;45848;-83
2024/01/03 18:50:04;;;;;;;3.80;1.00;;;;;;;10.46;93.44;98015.71;183891;1232;46081;-83
2024/01/03 18:54:06;;;;;;;2.20;1.40;;;;;;;10.49;92.94;98011.80;184614;1232;58072;-82
2024/01/03 18:58:08;;;;;;;2.60;1.60;;;;;;;10.46;92.19;98008.81;183440;1236;46065;-82
2024/01/03 19:02:14;;;;;;;3.70;1.70;;;;;;;10.38;92.82;98005.69;184229;1236;46058;-82
2024/01/03 19:06:19;;;;;;;1.70;0.60;;;;;;;10.26;94.01;98004.60;183183;1231;46122;-82
2024/01/03 19:10:21;;;;;;;2.70;1.30;;;;;;;10.23;95.18;98004.46;184320;1232;45916;-82